Weather at Elazığ Airport

Public forecast

Using degrees Celsius for public forecast. Weather courtesy of forecast.io.

Current aviation weather report (METAR) for Elazığ Airport

2024/05/23 21:50 (retrieved 1 hour ago)

LTCA 232150Z 03006KT 340V070 9999 SCT035 BKN100 19/09 Q1009 NOSIG RMK RWY07 06006KT 3CU035 6AC100

Closest aviation forecast (TAF) to Elazığ Airport

Closest forecast is Malatya Erhaç Airport, 56.9 nm (105.3 km) W.

2024/05/23 18:00 (retrieved 5 hours ago)

TAF LTAT 231640Z 2318/2418 VRB02KT 9999 SCT040 BKN100 TEMPO 2318/2322 -SHRA FEW027CB BKN033 BKN090 BECMG 2322/2324 CAVOK BECMG 2404/2406 FEW040 SCT100 PROB30 TEMPO 2409/2412 21012KT -TSRA FEW027CB BKN033 BKN090